Huslia Airport Huslia US
ICAO: PAHL
IATA:
Category: Medium
Scheduled Services:

Elevation: 220 ft
TransAlt. 18000 ft.

Airport Communications:
AWOS 3:135.75
ANCHORAGE CNTR:127
CTAF:122.8
FAIRBANKS RDO:122.4

PAHL Zoom In..

If Map Doesn't Load, Click Here

Runways:

(A) RW 03 length 4000 ft width 75 ft
---- / hdg 32

(B) RW 21 length 4000 ft width 75 ft
---- / hdg 212

Location; PAHL
Day. 21 / Time. 12.56 Zulu
* Altimeter: 29.97
* Temperature: 05° c. 41°f.
* Wind from: 270° Speed 03 kn.
Dewpoint: 04° c.
Visibility: 10 Statute Miles.
Clouds: Overcast 3700 ft.

PAHL 211256Z AUTO 27003KT 10SM OVC037 05/04 A2997 RMK AO2 SLP160 T00500039


Wind From 270°
Speed 03 kn.

 
 
jpsmedia.com for Web Design worldairports.se 2018   terms of use